Birmingham-Shuttlesworth International Airport
KBHM : now visible

Airfield :











YOU CAN JOIN US ON...

 
LOGIN :

Register | Disclaimer

   EN    FR    IT 

 









Legend :    VFR   Marginal VFR   IFR   Intensive IFR   Very Intensive IFR
Visi :
Ceiling :
>= 8 km
>= 3000ft
5 to 8 km
1000 to 3000 ft
1500m to 5 km
500 to 1000 ft
800 to 1500m
200 to 500 ft
< 800m
< 200 ft
Symbols :   Thunderstorms  Fog  Heavy snow  Heavy precipitations  Wind > 20 kt







- Airport Elevation : 650 ft
- IATA code : BHM


KBHM - Birmingham-Shuttlesworth International

CURRENT METAR :
  • 260453Z 12007KT 9SM -RA SCT017 SCT048 OVC110 23/21 A3002 RMK AO2 SLP158 P0003 T02280211

EXPIRED METARs :
  • 260353Z 11007KT 7SM -RA FEW017 BKN085 OVC110 23/21 A3003 RMK AO2 SLP162 P0002 T02280211
  • 260253Z 11006KT 9SM -RA FEW090 SCT120 OVC140 23/21 A3003 RMK AO2 SLP159 P0015 60016 T02280211 51014

TAF KBHM
Valid from the 26 at 04:00 until the 27 at 00:00 UTC


260424Z 2604/2624 12006KT 6SM -RA OVC035
FM260500 11006KT P6SM VCSH FEW002 BKN025
FM261000 13007KT P6SM VCSH OVC009
FM261500 14009KT P6SM VCSH OVC012
No reported NOTAMs for that airfield.



MET'MAP, your aeronautical weather chart ! - Copyright ORBIFLY December 2007 - Disclaimer

ORBIFLY MET'MAP TEAM :

Programming & Development : Alexandra Zaïnal
Concept & Development : Baudouin d'Aumeries
Co-Development & Prog : Marc-Olivier Méhu
Technical & hardware support : Manuel Goepfert

Contact : metmap@orbifly.com




SOURCES & CREDITS :

   NOAA       Earth
Advisory